Latest Weather Observations for Geelong Racecourse

IDV60901

Issued at 9:11 am EDT Monday 27 January 2020 (issued every 10 minutes, with the page automatically refreshed every 10 minutes)

About weather observations | Map of Melbourne area stations | Latest observations for Melbourne area | Other Formats
Station Details ID: 087184 Name: GEELONG RACECOURSE Lat: -38.17 Lon: 144.38 Height: 12.9 m
Data from the previous 72 hours. | See also: Recent months at Geelong Racecourse
Date/Time
EDT
Temp
°C
App
Temp
°C
Dew
Point
°C
Rel
Hum
%
Delta-T
°C
Wind Press
QNH
hPa
Press
MSL
hPa
Rain since
9am
mm
Dir  Spd
km/h
Gust
km/h
Spd
kts
Gust
kts
27/09:00am 18.0 18.5 14.1 78 2.2 NNW 4 7 2 4 1015.7 1015.7 0.0
27/08:30am 17.3 18.7 15.5 89 1.1 W 2 4 1 2 1015.5 1015.5 0.0
27/08:00am 16.5 17.4 15.2 92 0.8 W 4 6 2 3 1015.1 1015.1 0.0
27/07:30am 15.6 16.7 14.5 93 0.6 NW 2 4 1 2 1014.3 1014.3 0.0
27/07:00am 15.5 16.8 14.2 92 0.7 CALM 0 0 0 0 1014.9 1014.9 0.0
27/06:30am 15.7 16.7 14.4 92 0.7 SW 2 2 1 1 1014.7 1014.7 0.0
27/06:00am 16.0 16.8 14.7 92 0.7 SW 4 4 2 2 1014.7 1014.7 0.0
27/05:30am 16.0 16.4 14.7 92 0.7 WSW 6 6 3 3 1014.7 1014.7 0.0
27/05:00am 16.2 17.9 15.1 93 0.6 CALM 0 0 0 0 1014.2 1014.2 0.0
27/04:30am 16.1 17.3 14.8 92 0.7 ESE 2 4 1 2 1014.1 1014.1 0.0
27/04:00am 16.1 16.9 14.8 92 0.7 SSE 4 6 2 3 1014.5 1014.5 0.0
27/03:30am 16.3 17.5 15.0 92 0.8 SSE 2 4 1 2 1014.8 1014.8 0.0
27/03:00am 16.6 16.8 14.2 86 1.4 S 6 7 3 4 1015.1 1015.1 0.0
27/02:30am 16.8 17.4 14.3 85 1.4 ESE 4 4 2 2 1015.1 1015.1 0.0
27/02:00am 16.9 17.5 14.2 84 1.5 ENE 4 7 2 4 1015.5 1015.5 0.0
27/01:30am 16.7 17.7 14.2 85 1.4 ENE 2 6 1 3 1016.0 1016.0 0.0
27/01:00am 16.8 17.3 14.1 84 1.5 ENE 4 6 2 3 1016.2 1016.2 0.0
27/12:30am 16.6 17.3 14.4 87 1.3 S 4 6 2 3 1016.9 1016.9 0.0
27/12:00am 16.5 16.7 14.2 86 1.3 S 6 7 3 4 1016.8 1016.8 0.0
 
Date/Time
EDT
Temp
°C
App
Temp
°C
Dew
Point
°C
Rel
Hum
%
Delta-T
°C
Wind Press
QNH
hPa
Press
MSL
hPa
Rain since
9am
mm
Dir  Spd
km/h
Gust
km/h
Spd
kts
Gust
kts
26/11:30pm 16.5 16.9 13.6 83 1.6 SSE 4 4 2 2 1016.8 1016.8 0.0
26/11:00pm 16.6 16.5 13.3 81 1.8 S 6 7 3 4 1016.8 1016.8 0.0
26/10:30pm 16.9 16.5 13.0 78 2.2 SSE 7 11 4 6 1016.7 1016.7 0.0
26/10:00pm 17.0 16.2 12.9 77 2.3 S 9 15 5 8 1016.7 1016.7 0.0
26/09:30pm 17.2 16.0 12.7 75 2.5 S 11 15 6 8 1016.2 1016.2 0.0
26/09:00pm 17.5 14.6 12.4 72 2.8 S 19 24 10 13 1016.3 1016.3 0.0
26/08:30pm 17.7 14.1 11.9 69 3.2 S 22 30 12 16 1016.2 1016.2 0.0
26/08:00pm 17.9 15.5 12.8 72 2.8 S 17 26 9 14 1015.5 1015.5 0.0
26/07:30pm 18.0 15.4 13.7 76 2.4 S 20 28 11 15 1015.3 1015.3 0.0
26/07:00pm 18.9 16.6 14.0 73 2.8 S 19 24 10 13 1014.8 1014.8 0.0
26/06:30pm 18.9 16.8 13.7 72 3.0 SSE 17 26 9 14 1014.5 1014.5 0.0
26/06:00pm 19.3 16.8 14.1 72 3.0 S 20 28 11 15 1014.2 1014.2 0.0
26/05:30pm 19.8 17.4 14.4 71 3.1 SSE 20 28 11 15 1014.0 1014.0 0.0
26/05:00pm 20.9 18.4 13.4 62 4.3 S 19 28 10 15 1014.1 1014.1 0.0
26/04:30pm 21.1 18.8 14.0 64 4.1 S 19 24 10 13 1014.2 1014.2 0.0
26/04:00pm 21.6 20.0 15.0 66 3.9 SSE 17 24 9 13 1014.0 1014.0 0.0
26/03:30pm 22.5 20.8 15.8 66 4.0 SE 19 26 10 14 1014.2 1014.2 0.0
26/03:00pm 22.1 22.8 16.1 69 3.6 ESE 7 11 4 6 1014.1 1014.1 0.0
26/02:30pm 22.1 22.6 16.6 71 3.3 S 9 17 5 9 1014.4 1014.4 0.0
26/02:00pm 20.9 21.5 16.7 77 2.5 SSE 9 17 5 9 1014.6 1014.6 0.0
26/01:30pm 19.8 20.7 18.5 92 0.8 SSE 11 15 6 8 1014.6 1014.6 0.0
26/01:00pm 18.9 18.0 17.7 93 0.7 S 19 28 10 15 1014.8 1014.8 0.0
26/12:30pm 20.8 20.7 17.0 79 2.3 WSW 13 22 7 12 1014.7 1014.7 0.0
26/12:00pm 20.4 19.1 16.8 80 2.2 WSW 19 30 10 16 1014.6 1014.6 0.0
26/11:30am 20.7 19.3 16.9 79 2.3 W 20 32 11 17 1014.3 1014.3 0.0
26/11:00am 20.9 19.9 16.7 77 2.5 W 17 26 9 14 1014.2 1014.2 0.0
26/10:30am 20.3 19.2 17.7 85 1.6 W 20 30 11 16 1014.4 1014.4 0.0
26/10:00am 20.9 20.4 17.9 83 1.9 W 17 24 9 13 1014.0 1014.0 0.0
26/09:30am 19.9 20.2 18.7 93 0.7 W 15 22 8 12 1014.0 1014.0 0.0
26/09:00am 17.5 17.8 16.9 96 0.4 NW 11 15 6 8 1013.7 1013.7 0.0
26/08:30am 16.2 16.8 15.7 97 0.3 NW 7 15 4 8 1013.3 1013.3 0.0
26/08:00am 15.4 15.3 14.9 97 0.3 NW 9 11 5 6 1013.2 1013.2 0.0
26/07:30am 15.1 15.4 14.6 97 0.3 NNW 6 9 3 5 1013.2 1013.2 0.0
26/07:00am 15.0 15.3 14.5 97 0.3 NW 6 9 3 5 1013.4 1013.4 0.0
26/06:30am 14.4 15.2 13.8 96 0.3 WSW 2 4 1 2 1013.3 1013.3 0.0
26/06:00am 14.7 15.2 14.1 96 0.3 WSW 4 4 2 2 1012.8 1012.8 0.0
26/05:30am 14.7 15.6 14.1 96 0.3 WSW 2 4 1 2 1012.7 1012.7 0.0
26/05:00am 15.2 15.5 14.6 96 0.3 WSW 6 6 3 3 1012.6 1012.6 0.0
26/04:30am 15.1 15.8 14.5 96 0.3 WSW 4 6 2 3 1012.4 1012.4 0.0
26/04:00am 15.6 16.1 15.0 96 0.3 SW 6 6 3 3 1012.5 1012.5 0.0
26/03:30am 15.3 16.4 14.7 96 0.3 WSW 2 4 1 2 1012.8 1012.8 0.0
26/03:00am 15.4 17.0 14.8 96 0.3 CALM 0 0 0 0 1012.8 1012.8 0.0
26/02:30am 15.8 16.4 15.2 96 0.3 SW 6 7 3 4 1012.9 1012.9 0.0
26/02:00am 15.9 17.6 15.1 95 0.5 CALM 0 0 0 0 1013.1 1013.1 0.0
26/01:30am 16.3 18.1 15.5 95 0.5 CALM 0 0 0 0 1013.1 1013.1 0.0
26/01:00am 16.1 17.8 15.3 95 0.5 CALM 0 0 0 0 1013.4 1013.4 0.0
26/12:30am 16.3 18.0 15.3 94 0.6 CALM 0 0 0 0 1013.7 1013.7 0.0
26/12:00am 16.8 18.7 15.8 94 0.6 CALM 0 0 0 0 1013.7 1013.7 0.0
 
Date/Time
EDT
Temp
°C
App
Temp
°C
Dew
Point
°C
Rel
Hum
%
Delta-T
°C
Wind Press
QNH
hPa
Press
MSL
hPa
Rain since
9am
mm
Dir  Spd
km/h
Gust
km/h
Spd
kts
Gust
kts
25/11:30pm 17.2 18.9 16.2 94 0.6 E 2 4 1 2 1014.0 1014.0 0.0
25/11:00pm 17.4 19.5 16.3 93 0.7 CALM 0 2 0 1 1014.2 1014.2 0.0
25/10:30pm 17.5 18.9 16.4 93 0.7 ESE 4 6 2 3 1014.3 1014.3 0.0
25/10:00pm 17.6 18.7 16.5 93 0.7 SSE 6 15 3 8 1014.1 1014.1 0.0
25/09:30pm 17.8 18.0 16.7 93 0.7 S 11 13 6 7 1013.8 1013.8 0.0
25/09:00pm 18.2 18.5 16.9 92 0.8 SSE 11 17 6 9 1013.6 1013.6 0.0
25/08:30pm 19.0 19.2 16.8 87 1.3 SSE 11 17 6 9 1013.2 1013.2 0.0
25/08:00pm 19.8 19.3 15.9 78 2.3 SSE 13 20 7 11 1012.9 1012.9 0.0
25/07:30pm 20.4 19.7 15.4 73 3.0 SSE 13 19 7 10 1012.6 1012.6 0.0
25/07:00pm 21.0 18.9 14.6 67 3.8 SSE 19 26 10 14 1012.4 1012.4 0.0
25/06:30pm 20.9 18.5 13.8 64 4.1 SSE 19 28 10 15 1012.4 1012.4 0.0
25/06:00pm 22.0 19.9 14.6 63 4.4 SSE 19 28 10 15 1012.4 1012.4 0.0
25/05:30pm 22.2 19.8 14.3 61 4.6 SSE 20 30 11 16 1012.6 1012.6 0.0
25/05:00pm 22.3 19.9 14.4 61 4.6 SSE 20 30 11 16 1012.7 1012.7 0.0
25/04:30pm 23.2 20.4 14.2 57 5.3 SSE 22 32 12 17 1012.5 1012.5 0.0
25/04:00pm 24.0 21.0 14.7 56 5.5 S 24 37 13 20 1012.5 1012.5 0.0
25/03:30pm 26.9 24.7 12.2 40 8.5 WSW 15 35 8 19 1012.2 1012.2 0.0
25/03:00pm 27.5 25.6 11.9 38 9.0 WNW 13 26 7 14 1012.3 1012.3 0.0
25/02:30pm 26.5 24.2 10.6 37 8.9 W 13 28 7 15 1012.7 1012.7 0.0
25/02:00pm 26.3 24.5 12.0 41 8.2 W 13 28 7 15 1013.0 1013.0 0.0
25/01:30pm 25.7 23.4 11.8 42 7.9 W 15 26 8 14 1013.3 1013.3 0.0
25/01:00pm 25.3 23.4 12.9 46 7.2 WNW 15 22 8 12 1013.4 1013.4 0.0
25/12:30pm 24.6 23.2 12.2 46 7.1 WNW 11 20 6 11 1013.6 1013.6 0.0
25/12:00pm 23.8 22.1 12.4 48 6.5 WNW 13 26 7 14 1013.8 1013.8 0.0
25/11:30am 22.7 20.1 12.0 50 6.0 WNW 17 28 9 15 1014.0 1014.0 0.0
25/11:00am 22.4 20.6 13.2 56 5.3 WNW 15 24 8 13 1014.2 1014.2 0.0
25/10:30am 21.4 19.5 13.1 59 4.7 WNW 15 30 8 16 1014.3 1014.3 0.0
25/10:00am 20.9 19.0 14.1 65 3.9 WNW 17 28 9 15 1014.5 1014.5 0.0
25/09:30am 19.8 18.6 14.0 69 3.3 WNW 13 19 7 10 1014.7 1014.7 0.0
25/09:00am 18.9 18.2 14.4 75 2.6 WNW 11 19 6 10 1014.8 1014.8 0.0
25/08:30am 17.4 16.8 14.5 83 1.7 WNW 11 15 6 8 1014.7 1014.7 0.0
25/08:00am 16.7 17.1 15.4 92 0.8 NW 7 11 4 6 1014.1 1014.1 0.0
25/07:30am 15.3 15.3 14.2 93 0.6 WNW 7 11 4 6 1013.8 1013.8 0.0
25/07:00am 14.3 14.2 13.3 94 0.6 NW 6 9 3 5 1013.7 1013.7 0.0
25/06:30am 14.0 14.5 12.9 93 0.6 WNW 2 4 1 2 1013.5 1013.5 0.0
25/06:00am 14.6 14.9 13.5 93 0.6 NW 4 7 2 4 1013.3 1013.3 0.0
25/05:30am 14.6 14.6 13.6 94 0.6 NW 6 7 3 4 1013.4 1013.4 0.0
25/05:00am 14.6 15.3 13.5 93 0.6 NNW 2 6 1 3 1013.5 1013.5 0.0
25/04:30am 14.9 15.3 13.8 93 0.6 N 4 6 2 3 1013.6 1013.6 0.0
25/04:00am 15.0 15.1 14.0 94 0.6 NW 6 7 3 4 1013.7 1013.7 0.0
25/03:30am 14.9 15.3 13.8 93 0.6 WNW 4 6 2 3 1013.7 1013.7 0.0
25/03:00am 15.5 15.8 14.5 94 0.6 NW 6 7 3 4 1013.6 1013.6 0.0
25/02:30am 15.7 16.2 14.9 95 0.5 NW 6 7 3 4 1013.6 1013.6 0.0
25/02:00am 15.2 15.5 14.4 95 0.5 WNW 6 7 3 4 1013.7 1013.7 0.0
25/01:30am 14.9 16.2 14.1 95 0.5 CALM 0 6 0 3 1013.7 1013.7 0.0
25/01:00am 15.9 17.6 15.1 95 0.5 CALM 0 0 0 0 1013.5 1013.5 0.0
25/12:30am 15.9 16.7 14.9 94 0.6 SSW 4 6 2 3 1013.5 1013.5 0.0
25/12:00am 16.5 16.6 15.5 94 0.6 SW 9 11 5 6 1013.5 1013.5 0.0
 
Date/Time
EDT
Temp
°C
App
Temp
°C
Dew
Point
°C
Rel
Hum
%
Delta-T
°C
Wind Press
QNH
hPa
Press
MSL
hPa
Rain since
9am
mm
Dir  Spd
km/h
Gust
km/h
Spd
kts
Gust
kts
24/11:30pm 16.9 17.5 15.8 93 0.6 SSW 7 9 4 5 1013.2 1013.2 0.0
24/11:00pm 17.6 18.0 16.3 92 0.8 S 9 11 5 6 1013.1 1013.1 0.0
24/10:30pm 18.3 18.2 13.8 75 2.6 S 7 11 4 6 1013.2 1013.2 0.0
24/10:00pm 19.6 19.4 10.6 56 4.9 NNW 2 4 1 2 1012.9 1012.9 0.0
24/09:30pm 19.8 19.5 10.0 53 5.3 NNW 2 4 1 2 1012.5 1012.5 0.0
24/09:00pm 20.5 19.3 9.7 50 5.8 NNW 6 6 3 3 1012.1 1012.1 0.0
24/08:30pm 21.4 19.9 9.0 45 6.6 NW 7 11 4 6 1012.1 1012.1 0.0
24/08:00pm 21.6 19.2 8.8 44 6.8 WNW 11 17 6 9 1012.0 1012.0 0.0
24/07:30pm 21.9 19.2 8.8 43 7.0 WNW 13 20 7 11 1011.7 1011.7 0.0
24/07:00pm 22.0 18.5 8.9 43 7.0 WNW 17 26 9 14 1011.4 1011.4 0.0
24/06:30pm 22.0 18.1 8.5 42 7.1 WNW 19 28 10 15 1011.2 1011.2 0.0
24/06:00pm 22.2 18.2 9.0 43 7.0 WNW 20 28 11 15 1011.2 1011.2 0.0
24/05:30pm 22.4 18.4 9.2 43 7.1 WNW 20 30 11 16 1011.2 1011.2 0.0
24/05:00pm 22.2 18.3 8.7 42 7.2 NW 19 30 10 16 1011.2 1011.2 0.0
24/04:30pm 22.8 18.8 9.2 42 7.3 WNW 20 30 11 16 1011.1 1011.1 0.0
24/04:00pm 21.9 17.1 8.8 43 7.0 WNW 24 35 13 19 1011.3 1011.3 0.0
24/03:30pm 21.7 17.8 9.6 46 6.5 NNW 20 33 11 18 1011.6 1011.6 0.0
24/03:00pm 21.3 17.0 9.5 47 6.3 WNW 22 32 12 17 1011.6 1011.6 0.0
24/02:30pm 21.1 17.3 9.7 48 6.1 WNW 20 33 11 18 1011.8 1011.8 0.0
24/02:00pm 20.5 16.8 9.4 49 5.9 WNW 19 32 10 17 1012.1 1012.1 0.0
24/01:30pm 20.1 16.5 9.7 51 5.6 WNW 19 32 10 17 1012.1 1012.1 0.0
24/01:00pm 19.5 15.2 9.4 52 5.3 NW 22 39 12 21 1012.1 1012.1 0.0
24/12:30pm 19.1 15.3 9.0 52 5.3 NW 19 32 10 17 1011.9 1011.9 0.0
24/12:00pm 19.2 14.9 9.4 53 5.2 WNW 22 33 12 18 1011.9 1011.9 0.0
24/11:30am 19.7 14.9 9.0 50 5.6 WNW 24 39 13 21 1011.8 1011.8 0.0
24/11:00am 19.2 14.2 9.7 54 5.1 WNW 26 39 14 21 1011.3 1011.3 0.0
24/10:30am 18.7 14.2 10.0 57 4.6 WNW 24 37 13 20 1011.1 1011.1 0.0
24/10:00am 18.0 13.0 9.6 58 4.4 WNW 26 37 14 20 1011.0 1011.0 0.0
24/09:30am 17.1 12.8 9.5 61 4.0 WNW 22 33 12 18 1010.5 1010.5 0.0

Latest Capital City Observations: Canberra | Sydney | Melbourne | Brisbane | Adelaide | Perth | Hobart | Darwin

Other formats

Comma delimited format used in spreadsheet applications
http://www.bom.gov.au/fwo/IDV60901/IDV60901.94857.axf

JavaScript Object Notation format (JSON) in row-major order
http://www.bom.gov.au/fwo/IDV60901/IDV60901.94857.json

Data quality

Most of these data are generated automatically and are frequently updated. Quality checks on data are not normally performed. It is possible for incorrect values to appear. Refer to information at About Latest Weather Observations and please check the disclaimer before using these data.